sensor_id;sensor_type;location;lat;lon;timestamp;pressure;altitude;pressure_sealevel;temperature;humidity
43119;BME280;28729;49.838;8.650;2022-11-30T00:02:04;100165.28;;;8.86;100.00
43119;BME280;28729;49.838;8.650;2022-11-30T00:06:07;100170.38;;;8.83;100.00
43119;BME280;28729;49.838;8.650;2022-11-30T00:10:09;100172.56;;;8.81;100.00
43119;BME280;28729;49.838;8.650;2022-11-30T00:14:11;100170.00;;;8.79;100.00
43119;BME280;28729;49.838;8.650;2022-11-30T00:18:13;100163.31;;;8.75;100.00
43119;BME280;28729;49.838;8.650;2022-11-30T00:22:17;100165.44;;;8.73;100.00
43119;BME280;28729;49.838;8.650;2022-11-30T00:26:18;100170.31;;;8.71;100.00
43119;BME280;28729;49.838;8.650;2022-11-30T00:30:23;100168.44;;;8.72;100.00
43119;BME280;28729;49.838;8.650;2022-11-30T00:34:25;100170.94;;;8.73;100.00
43119;BME280;28729;49.838;8.650;2022-11-30T00:38:27;100158.28;;;8.72;100.00
43119;BME280;28729;49.838;8.650;2022-11-30T00:42:29;100155.75;;;8.71;100.00
43119;BME280;28729;49.838;8.650;2022-11-30T00:46:30;100152.16;;;8.70;100.00
43119;BME280;28729;49.838;8.650;2022-11-30T00:50:32;100154.53;;;8.66;100.00
43119;BME280;28729;49.838;8.650;2022-11-30T00:54:34;100156.19;;;8.67;100.00
43119;BME280;28729;49.838;8.650;2022-11-30T00:58:36;100164.22;;;8.69;100.00
43119;BME280;28729;49.838;8.650;2022-11-30T01:02:37;100174.13;;;8.70;100.00
43119;BME280;28729;49.838;8.650;2022-11-30T01:06:39;100172.22;;;8.71;100.00
43119;BME280;28729;49.838;8.650;2022-11-30T01:10:42;100171.19;;;8.72;100.00
43119;BME280;28729;49.838;8.650;2022-11-30T01:14:44;100166.28;;;8.74;100.00
43119;BME280;28729;49.838;8.650;2022-11-30T01:18:46;100165.81;;;8.77;100.00
43119;BME280;28729;49.838;8.650;2022-11-30T01:22:48;100175.50;;;8.79;100.00
43119;BME280;28729;49.838;8.650;2022-11-30T01:26:50;100172.56;;;8.81;100.00
43119;BME280;28729;49.838;8.650;2022-11-30T01:31:02;100177.59;;;8.84;100.00
43119;BME280;28729;49.838;8.650;2022-11-30T01:35:04;100178.41;;;8.84;100.00
43119;BME280;28729;49.838;8.650;2022-11-30T01:39:07;100186.41;;;8.86;100.00
43119;BME280;28729;49.838;8.650;2022-11-30T01:43:10;100178.16;;;8.86;100.00
43119;BME280;28729;49.838;8.650;2022-11-30T01:47:12;100177.81;;;8.82;100.00
43119;BME280;28729;49.838;8.650;2022-11-30T01:51:14;100176.13;;;8.81;100.00
43119;BME280;28729;49.838;8.650;2022-11-30T01:55:28;100182.25;;;8.83;100.00
43119;BME280;28729;49.838;8.650;2022-11-30T01:59:33;100181.16;;;8.84;100.00
43119;BME280;28729;49.838;8.650;2022-11-30T02:07:53;100182.47;;;8.82;100.00
43119;BME280;28729;49.838;8.650;2022-11-30T02:11:56;100178.03;;;8.81;100.00
43119;BME280;28729;49.838;8.650;2022-11-30T02:16:09;100183.75;;;8.79;100.00
43119;BME280;28729;49.838;8.650;2022-11-30T02:29:03;100174.06;;;8.77;100.00
43119;BME280;28729;49.838;8.650;2022-11-30T02:33:18;100180.84;;;8.74;100.00
43119;BME280;28729;49.838;8.650;2022-11-30T02:37:23;100181.72;;;8.75;100.00
43119;BME280;28729;49.838;8.650;2022-11-30T02:41:25;100183.38;;;8.76;100.00
43119;BME280;28729;49.838;8.650;2022-11-30T02:50:08;100182.16;;;8.72;100.00
43119;BME280;28729;49.838;8.650;2022-11-30T02:54:11;100177.72;;;8.71;100.00
43119;BME280;28729;49.838;8.650;2022-11-30T02:58:15;100187.66;;;8.72;100.00
43119;BME280;28729;49.838;8.650;2022-11-30T03:02:17;100185.38;;;8.69;100.00
43119;BME280;28729;49.838;8.650;2022-11-30T03:06:19;100189.16;;;8.67;100.00
43119;BME280;28729;49.838;8.650;2022-11-30T03:10:21;100183.91;;;8.66;100.00
43119;BME280;28729;49.838;8.650;2022-11-30T03:14:22;100187.50;;;8.66;100.00
43119;BME280;28729;49.838;8.650;2022-11-30T03:18:24;100192.75;;;8.68;100.00
43119;BME280;28729;49.838;8.650;2022-11-30T03:22:26;100191.09;;;8.67;100.00
43119;BME280;28729;49.838;8.650;2022-11-30T03:26:27;100194.66;;;8.67;100.00
43119;BME280;28729;49.838;8.650;2022-11-30T03:30:29;100200.16;;;8.67;100.00
43119;BME280;28729;49.838;8.650;2022-11-30T03:34:30;100196.94;;;8.71;100.00
43119;BME280;28729;49.838;8.650;2022-11-30T03:38:32;100206.03;;;8.71;100.00
43119;BME280;28729;49.838;8.650;2022-11-30T03:42:35;100198.88;;;8.70;100.00
43119;BME280;28729;49.838;8.650;2022-11-30T03:46:36;100201.22;;;8.66;100.00
43119;BME280;28729;49.838;8.650;2022-11-30T03:50:38;100199.09;;;8.69;100.00
43119;BME280;28729;49.838;8.650;2022-11-30T03:54:40;100203.97;;;8.66;100.00
43119;BME280;28729;49.838;8.650;2022-11-30T03:58:41;100201.44;;;8.65;100.00
43119;BME280;28729;49.838;8.650;2022-11-30T04:02:46;100208.22;;;8.62;100.00
43119;BME280;28729;49.838;8.650;2022-11-30T04:06:48;100208.69;;;8.59;100.00
43119;BME280;28729;49.838;8.650;2022-11-30T04:10:51;100207.47;;;8.55;100.00
43119;BME280;28729;49.838;8.650;2022-11-30T04:14:53;100207.72;;;8.54;100.00
43119;BME280;28729;49.838;8.650;2022-11-30T04:18:54;100208.56;;;8.54;100.00
43119;BME280;28729;49.838;8.650;2022-11-30T04:22:57;100203.50;;;8.51;100.00
43119;BME280;28729;49.838;8.650;2022-11-30T04:26:58;100209.00;;;8.51;100.00
43119;BME280;28729;49.838;8.650;2022-11-30T04:31:00;100214.50;;;8.51;100.00
43119;BME280;28729;49.838;8.650;2022-11-30T04:35:03;100207.94;;;8.52;100.00
43119;BME280;28729;49.838;8.650;2022-11-30T04:39:05;100204.97;;;8.54;100.00
43119;BME280;28729;49.838;8.650;2022-11-30T04:43:07;100202.44;;;8.52;100.00
43119;BME280;28729;49.838;8.650;2022-11-30T04:47:09;100196.94;;;8.52;100.00
43119;BME280;28729;49.838;8.650;2022-11-30T04:51:11;100204.09;;;8.53;100.00
43119;BME280;28729;49.838;8.650;2022-11-30T04:55:12;100206.25;;;8.51;100.00
43119;BME280;28729;49.838;8.650;2022-11-30T04:59:14;100212.34;;;8.53;100.00
43119;BME280;28729;49.838;8.650;2022-11-30T05:03:15;100214.03;;;8.54;100.00
43119;BME280;28729;49.838;8.650;2022-11-30T05:07:17;100215.50;;;8.57;100.00
43119;BME280;28729;49.838;8.650;2022-11-30T05:11:19;100214.63;;;8.56;100.00
43119;BME280;28729;49.838;8.650;2022-11-30T05:15:21;100211.88;;;8.56;100.00
43119;BME280;28729;49.838;8.650;2022-11-30T05:19:23;100215.72;;;8.55;100.00
43119;BME280;28729;49.838;8.650;2022-11-30T05:23:24;100215.53;;;8.50;100.00
43119;BME280;28729;49.838;8.650;2022-11-30T05:27:26;100216.63;;;8.49;100.00
43119;BME280;28729;49.838;8.650;2022-11-30T05:31:28;100221.50;;;8.47;100.00
43119;BME280;28729;49.838;8.650;2022-11-30T05:35:30;100222.75;;;8.51;100.00
43119;BME280;28729;49.838;8.650;2022-11-30T05:39:31;100220.81;;;8.52;100.00
43119;BME280;28729;49.838;8.650;2022-11-30T05:43:33;100224.03;;;8.49;100.00
43119;BME280;28729;49.838;8.650;2022-11-30T05:47:34;100219.38;;;8.49;100.00
43119;BME280;28729;49.838;8.650;2022-11-30T05:51:38;100218.09;;;8.52;100.00
43119;BME280;28729;49.838;8.650;2022-11-30T05:55:40;100223.34;;;8.53;100.00
43119;BME280;28729;49.838;8.650;2022-11-30T05:59:42;100225.25;;;8.53;100.00
43119;BME280;28729;49.838;8.650;2022-11-30T06:03:44;100221.66;;;8.52;100.00
43119;BME280;28729;49.838;8.650;2022-11-30T06:07:46;100226.50;;;8.57;100.00
43119;BME280;28729;49.838;8.650;2022-11-30T06:11:47;100229.81;;;8.59;100.00
43119;BME280;28729;49.838;8.650;2022-11-30T06:15:49;100232.56;;;8.59;100.00
43119;BME280;28729;49.838;8.650;2022-11-30T06:19:50;100236.16;;;8.59;100.00
43119;BME280;28729;49.838;8.650;2022-11-30T06:23:52;100232.97;;;8.62;100.00
43119;BME280;28729;49.838;8.650;2022-11-30T06:27:54;100235.25;;;8.65;100.00
43119;BME280;28729;49.838;8.650;2022-11-30T06:31:55;100243.94;;;8.62;100.00
43119;BME280;28729;49.838;8.650;2022-11-30T06:35:57;100240.97;;;8.64;100.00
43119;BME280;28729;49.838;8.650;2022-11-30T06:39:59;100238.25;;;8.64;100.00
43119;BME280;28729;49.838;8.650;2022-11-30T06:44:09;100242.91;;;8.63;100.00
43119;BME280;28729;49.838;8.650;2022-11-30T06:48:11;100248.41;;;8.63;100.00
43119;BME280;28729;49.838;8.650;2022-11-30T06:52:13;100249.22;;;8.64;100.00
43119;BME280;28729;49.838;8.650;2022-11-30T06:56:15;100245.41;;;8.65;100.00
43119;BME280;28729;49.838;8.650;2022-11-30T07:00:17;100248.97;;;8.65;100.00
43119;BME280;28729;49.838;8.650;2022-11-30T07:04:19;100247.09;;;8.66;100.00
43119;BME280;28729;49.838;8.650;2022-11-30T07:08:21;100254.06;;;8.69;100.00
43119;BME280;28729;49.838;8.650;2022-11-30T07:12:23;100253.81;;;8.70;100.00
43119;BME280;28729;49.838;8.650;2022-11-30T07:16:25;100254.19;;;8.74;100.00
43119;BME280;28729;49.838;8.650;2022-11-30T07:20:27;100262.59;;;8.79;100.00
43119;BME280;28729;49.838;8.650;2022-11-30T07:24:28;100259.19;;;8.83;100.00
43119;BME280;28729;49.838;8.650;2022-11-30T07:28:50;100258.50;;;8.88;100.00
43119;BME280;28729;49.838;8.650;2022-11-30T07:32:55;100251.47;;;8.92;100.00
43119;BME280;28729;49.838;8.650;2022-11-30T07:36:57;100262.00;;;8.95;100.00
43119;BME280;28729;49.838;8.650;2022-11-30T07:40:59;100257.75;;;8.99;100.00
43119;BME280;28729;49.838;8.650;2022-11-30T07:45:00;100266.16;;;9.04;100.00
43119;BME280;28729;49.838;8.650;2022-11-30T07:49:04;100265.69;;;9.07;100.00
43119;BME280;28729;49.838;8.650;2022-11-30T07:53:07;100265.44;;;9.09;100.00
43119;BME280;28729;49.838;8.650;2022-11-30T07:57:08;100256.38;;;9.08;100.00
43119;BME280;28729;49.838;8.650;2022-11-30T08:01:14;100262.03;;;9.13;100.00
43119;BME280;28729;49.838;8.650;2022-11-30T08:05:16;100264.31;;;9.17;100.00
43119;BME280;28729;49.838;8.650;2022-11-30T08:09:17;100265.97;;;9.18;100.00
43119;BME280;28729;49.838;8.650;2022-11-30T08:13:21;100261.09;;;9.20;100.00
43119;BME280;28729;49.838;8.650;2022-11-30T08:17:23;100264.22;;;9.23;100.00
43119;BME280;28729;49.838;8.650;2022-11-30T08:21:24;100264.38;;;9.28;100.00
43119;BME280;28729;49.838;8.650;2022-11-30T08:25:26;100269.44;;;9.31;100.00
43119;BME280;28729;49.838;8.650;2022-11-30T08:29:29;100269.78;;;9.35;100.00
43119;BME280;28729;49.838;8.650;2022-11-30T08:33:31;100271.94;;;9.33;100.00
43119;BME280;28729;49.838;8.650;2022-11-30T08:37:35;100274.22;;;9.36;100.00
43119;BME280;28729;49.838;8.650;2022-11-30T08:41:38;100286.47;;;9.40;100.00
43119;BME280;28729;49.838;8.650;2022-11-30T08:45:39;100283.97;;;9.50;100.00
43119;BME280;28729;49.838;8.650;2022-11-30T08:49:41;100294.81;;;9.64;100.00
43119;BME280;28729;49.838;8.650;2022-11-30T08:53:43;100301.06;;;9.71;100.00
43119;BME280;28729;49.838;8.650;2022-11-30T08:57:45;100302.91;;;9.77;100.00
43119;BME280;28729;49.838;8.650;2022-11-30T09:01:47;100300.75;;;9.79;100.00
43119;BME280;28729;49.838;8.650;2022-11-30T09:05:48;100308.16;;;9.78;100.00
43119;BME280;28729;49.838;8.650;2022-11-30T09:09:50;100309.84;;;9.79;100.00
43119;BME280;28729;49.838;8.650;2022-11-30T09:13:55;100312.34;;;9.81;100.00
43119;BME280;28729;49.838;8.650;2022-11-30T09:17:57;100318.25;;;9.85;100.00
43119;BME280;28729;49.838;8.650;2022-11-30T09:21:59;100320.41;;;9.82;100.00
43119;BME280;28729;49.838;8.650;2022-11-30T09:26:02;100315.72;;;9.83;100.00
43119;BME280;28729;49.838;8.650;2022-11-30T09:30:05;100326.53;;;9.85;100.00
43119;BME280;28729;49.838;8.650;2022-11-30T09:34:10;100325.06;;;9.82;100.00
43119;BME280;28729;49.838;8.650;2022-11-30T09:38:11;100325.53;;;9.79;100.00
43119;BME280;28729;49.838;8.650;2022-11-30T09:42:55;100318.47;;;9.83;100.00
43119;BME280;28729;49.838;8.650;2022-11-30T09:47:10;100321.03;;;9.96;100.00
43119;BME280;28729;49.838;8.650;2022-11-30T09:51:26;100316.44;;;10.09;100.00
43119;BME280;28729;49.838;8.650;2022-11-30T09:55:42;100315.09;;;10.11;100.00
43119;BME280;28729;49.838;8.650;2022-11-30T09:59:58;100313.44;;;10.10;100.00
43119;BME280;28729;49.838;8.650;2022-11-30T10:04:00;100321.94;;;10.09;100.00
43119;BME280;28729;49.838;8.650;2022-11-30T10:12:43;100318.75;;;10.23;100.00
43119;BME280;28729;49.838;8.650;2022-11-30T10:17:02;100325.25;;;10.29;100.00
43119;BME280;28729;49.838;8.650;2022-11-30T10:25:28;100318.22;;;10.33;100.00
43119;BME280;28729;49.838;8.650;2022-11-30T10:29:36;100317.00;;;10.41;100.00
43119;BME280;28729;49.838;8.650;2022-11-30T10:33:47;100314.88;;;10.55;100.00
43119;BME280;28729;49.838;8.650;2022-11-30T10:37:50;100309.03;;;10.75;100.00
43119;BME280;28729;49.838;8.650;2022-11-30T10:41:58;100307.47;;;10.90;100.00
43119;BME280;28729;49.838;8.650;2022-11-30T10:46:01;100302.31;;;10.94;100.00
43119;BME280;28729;49.838;8.650;2022-11-30T10:50:04;100301.97;;;10.90;100.00
43119;BME280;28729;49.838;8.650;2022-11-30T10:54:28;100296.81;;;10.94;100.00
43119;BME280;28729;49.838;8.650;2022-11-30T11:02:57;100289.50;;;10.88;100.00
43119;BME280;28729;49.838;8.650;2022-11-30T11:07:08;100280.75;;;10.79;100.00
43119;BME280;28729;49.838;8.650;2022-11-30T11:11:31;100283.75;;;10.78;100.00
43119;BME280;28729;49.838;8.650;2022-11-30T11:15:35;100282.66;;;10.79;100.00
43119;BME280;28729;49.838;8.650;2022-11-30T11:19:39;100279.44;;;10.82;100.00
43119;BME280;28729;49.838;8.650;2022-11-30T11:23:43;100290.81;;;10.85;100.00
43119;BME280;28729;49.838;8.650;2022-11-30T11:27:53;100286.16;;;10.86;100.00
43119;BME280;28729;49.838;8.650;2022-11-30T11:32:17;100283.16;;;10.76;100.00
43119;BME280;28729;49.838;8.650;2022-11-30T11:36:30;100271.41;;;10.68;100.00
43119;BME280;28729;49.838;8.650;2022-11-30T11:40:32;100270.59;;;10.68;100.00
43119;BME280;28729;49.838;8.650;2022-11-30T11:44:34;100274.03;;;10.75;100.00
43119;BME280;28729;49.838;8.650;2022-11-30T11:48:43;100278.59;;;10.81;100.00
43119;BME280;28729;49.838;8.650;2022-11-30T11:52:46;100274.28;;;10.85;100.00
43119;BME280;28729;49.838;8.650;2022-11-30T11:56:48;100278.94;;;10.97;100.00
43119;BME280;28729;49.838;8.650;2022-11-30T12:00:51;100285.78;;;11.06;100.00
43119;BME280;28729;49.838;8.650;2022-11-30T12:05:21;100290.44;;;11.17;100.00
43119;BME280;28729;49.838;8.650;2022-11-30T12:09:31;100275.94;;;11.22;100.00
43119;BME280;28729;49.838;8.650;2022-11-30T12:13:40;100274.47;;;11.31;100.00
43119;BME280;28729;49.838;8.650;2022-11-30T12:18:06;100275.19;;;11.26;100.00
43119;BME280;28729;49.838;8.650;2022-11-30T12:31:46;100284.31;;;11.67;100.00
43119;BME280;28729;49.838;8.650;2022-11-30T12:36:02;100278.63;;;11.85;100.00
43119;BME280;28729;49.838;8.650;2022-11-30T12:44:31;100281.16;;;11.87;100.00
43119;BME280;28729;49.838;8.650;2022-11-30T12:57:24;100284.75;;;11.88;100.00
43119;BME280;28729;49.838;8.650;2022-11-30T13:05:48;100281.72;;;11.89;100.00
43119;BME280;28729;49.838;8.650;2022-11-30T13:10:02;100282.56;;;11.90;100.00
43119;BME280;28729;49.838;8.650;2022-11-30T13:14:21;100279.69;;;11.84;100.00
43119;BME280;28729;49.838;8.650;2022-11-30T13:18:23;100277.31;;;11.76;100.00
43119;BME280;28729;49.838;8.650;2022-11-30T13:31:04;100279.06;;;11.54;100.00
43119;BME280;28729;49.838;8.650;2022-11-30T13:39:51;100289.81;;;11.27;100.00
43119;BME280;28729;49.838;8.650;2022-11-30T13:43:51;100288.84;;;11.21;100.00
43119;BME280;28729;49.838;8.650;2022-11-30T13:47:57;100285.03;;;11.22;100.00
43119;BME280;28729;49.838;8.650;2022-11-30T13:51:59;100282.03;;;11.12;100.00
43119;BME280;28729;49.838;8.650;2022-11-30T13:56:34;100281.47;;;10.98;100.00
43119;BME280;28729;49.838;8.650;2022-11-30T14:01:21;100287.84;;;10.87;100.00
43119;BME280;28729;49.838;8.650;2022-11-30T14:13:43;100287.47;;;10.60;100.00
43119;BME280;28729;49.838;8.650;2022-11-30T14:17:45;100285.19;;;10.57;100.00
43119;BME280;28729;49.838;8.650;2022-11-30T14:21:47;100294.16;;;10.52;100.00
43119;BME280;28729;49.838;8.650;2022-11-30T14:25:53;100295.84;;;10.41;100.00
43119;BME280;28729;49.838;8.650;2022-11-30T14:30:00;100294.59;;;10.37;100.00
43119;BME280;28729;49.838;8.650;2022-11-30T14:34:09;100300.13;;;10.37;100.00
43119;BME280;28729;49.838;8.650;2022-11-30T14:38:23;100303.00;;;10.31;100.00
43119;BME280;28729;49.838;8.650;2022-11-30T14:42:29;100306.66;;;10.24;100.00
43119;BME280;28729;49.838;8.650;2022-11-30T14:46:32;100302.94;;;10.19;100.00
43119;BME280;28729;49.838;8.650;2022-11-30T14:50:35;100302.78;;;10.14;100.00
43119;BME280;28729;49.838;8.650;2022-11-30T14:54:53;100310.47;;;10.12;100.00
43119;BME280;28729;49.838;8.650;2022-11-30T15:03:26;100301.59;;;10.10;100.00
43119;BME280;28729;49.838;8.650;2022-11-30T15:07:28;100302.75;;;10.02;100.00
43119;BME280;28729;49.838;8.650;2022-11-30T15:11:30;100298.56;;;9.99;100.00
43119;BME280;28729;49.838;8.650;2022-11-30T15:15:32;100301.19;;;9.94;100.00
43119;BME280;28729;49.838;8.650;2022-11-30T15:19:45;100301.19;;;9.94;100.00
43119;BME280;28729;49.838;8.650;2022-11-30T15:23:47;100305.22;;;9.92;100.00
43119;BME280;28729;49.838;8.650;2022-11-30T15:27:52;100307.84;;;9.87;100.00
43119;BME280;28729;49.838;8.650;2022-11-30T15:31:55;100305.34;;;9.85;100.00
43119;BME280;28729;49.838;8.650;2022-11-30T15:35:57;100311.31;;;9.82;100.00
43119;BME280;28729;49.838;8.650;2022-11-30T15:40:37;100315.34;;;9.79;100.00
43119;BME280;28729;49.838;8.650;2022-11-30T15:44:41;100310.53;;;9.75;100.00
43119;BME280;28729;49.838;8.650;2022-11-30T15:48:45;100313.75;;;9.72;100.00
43119;BME280;28729;49.838;8.650;2022-11-30T15:52:50;100308.50;;;9.70;100.00
43119;BME280;28729;49.838;8.650;2022-11-30T15:56:55;100320.81;;;9.68;100.00
43119;BME280;28729;49.838;8.650;2022-11-30T16:01:04;100314.69;;;9.66;100.00
43119;BME280;28729;49.838;8.650;2022-11-30T16:09:27;100327.50;;;9.72;100.00
43119;BME280;28729;49.838;8.650;2022-11-30T16:13:32;100321.41;;;9.70;100.00
43119;BME280;28729;49.838;8.650;2022-11-30T16:17:34;100333.00;;;9.72;100.00
43119;BME280;28729;49.838;8.650;2022-11-30T16:21:36;100333.47;;;9.69;100.00
43119;BME280;28729;49.838;8.650;2022-11-30T16:25:37;100338.41;;;9.67;100.00
43119;BME280;28729;49.838;8.650;2022-11-30T16:29:39;100333.56;;;9.62;100.00
43119;BME280;28729;49.838;8.650;2022-11-30T16:33:41;100333.66;;;9.55;100.00
43119;BME280;28729;49.838;8.650;2022-11-30T16:37:42;100331.97;;;9.54;100.00
43119;BME280;28729;49.838;8.650;2022-11-30T16:41:44;100332.44;;;9.51;100.00
43119;BME280;28729;49.838;8.650;2022-11-30T16:45:48;100340.09;;;9.49;100.00
43119;BME280;28729;49.838;8.650;2022-11-30T16:49:51;100350.69;;;9.46;100.00
43119;BME280;28729;49.838;8.650;2022-11-30T16:53:53;100348.19;;;9.44;100.00
43119;BME280;28729;49.838;8.650;2022-11-30T16:57:55;100348.25;;;9.38;100.00
43119;BME280;28729;49.838;8.650;2022-11-30T17:01:57;100349.56;;;9.35;100.00
43119;BME280;28729;49.838;8.650;2022-11-30T17:05:58;100359.72;;;9.34;100.00
43119;BME280;28729;49.838;8.650;2022-11-30T17:10:01;100369.88;;;9.34;100.00
43119;BME280;28729;49.838;8.650;2022-11-30T17:14:03;100363.16;;;9.30;100.00
43119;BME280;28729;49.838;8.650;2022-11-30T17:18:05;100371.22;;;9.25;100.00
43119;BME280;28729;49.838;8.650;2022-11-30T17:22:07;100376.59;;;9.20;100.00
43119;BME280;28729;49.838;8.650;2022-11-30T17:26:12;100375.13;;;9.17;100.00
43119;BME280;28729;49.838;8.650;2022-11-30T17:30:15;100375.34;;;9.16;100.00
43119;BME280;28729;49.838;8.650;2022-11-30T17:34:17;100380.25;;;9.13;100.00
43119;BME280;28729;49.838;8.650;2022-11-30T17:38:19;100375.19;;;9.10;100.00
43119;BME280;28729;49.838;8.650;2022-11-30T17:42:20;100381.16;;;9.07;100.00
43119;BME280;28729;49.838;8.650;2022-11-30T17:46:23;100372.50;;;9.04;100.00
43119;BME280;28729;49.838;8.650;2022-11-30T17:50:24;100380.34;;;9.00;100.00
43119;BME280;28729;49.838;8.650;2022-11-30T17:54:26;100386.31;;;8.97;100.00
43119;BME280;28729;49.838;8.650;2022-11-30T17:58:29;100376.84;;;8.93;100.00
43119;BME280;28729;49.838;8.650;2022-11-30T18:02:36;100390.66;;;8.86;100.00
43119;BME280;28729;49.838;8.650;2022-11-30T18:06:38;100386.66;;;8.82;100.00
43119;BME280;28729;49.838;8.650;2022-11-30T18:10:40;100395.59;;;8.78;100.00
43119;BME280;28729;49.838;8.650;2022-11-30T18:14:44;100402.34;;;8.75;100.00
43119;BME280;28729;49.838;8.650;2022-11-30T18:18:46;100400.91;;;8.73;100.00
43119;BME280;28729;49.838;8.650;2022-11-30T18:22:49;100397.75;;;8.69;100.00
43119;BME280;28729;49.838;8.650;2022-11-30T18:26:52;100401.56;;;8.68;100.00
43119;BME280;28729;49.838;8.650;2022-11-30T18:30:53;100398.41;;;8.64;100.00
43119;BME280;28729;49.838;8.650;2022-11-30T18:34:55;100405.44;;;8.60;100.00
43119;BME280;28729;49.838;8.650;2022-11-30T18:38:57;100412.22;;;8.58;100.00
43119;BME280;28729;49.838;8.650;2022-11-30T18:42:59;100412.41;;;8.56;100.00
43119;BME280;28729;49.838;8.650;2022-11-30T18:47:00;100410.13;;;8.53;100.00
43119;BME280;28729;49.838;8.650;2022-11-30T18:51:14;100422.81;;;8.48;100.00
43119;BME280;28729;49.838;8.650;2022-11-30T18:55:16;100420.13;;;8.41;100.00
43119;BME280;28729;49.838;8.650;2022-11-30T18:59:18;100419.50;;;8.32;100.00
43119;BME280;28729;49.838;8.650;2022-11-30T19:03:20;100411.72;;;8.29;100.00
43119;BME280;28729;49.838;8.650;2022-11-30T19:07:21;100418.28;;;8.28;100.00
43119;BME280;28729;49.838;8.650;2022-11-30T19:11:24;100419.75;;;8.31;100.00
43119;BME280;28729;49.838;8.650;2022-11-30T19:15:26;100426.06;;;8.31;100.00
43119;BME280;28729;49.838;8.650;2022-11-30T19:19:28;100422.50;;;8.31;100.00
43119;BME280;28729;49.838;8.650;2022-11-30T19:23:29;100428.19;;;8.29;100.00
43119;BME280;28729;49.838;8.650;2022-11-30T19:27:31;100432.41;;;8.32;100.00
43119;BME280;28729;49.838;8.650;2022-11-30T19:31:33;100434.06;;;8.33;100.00
43119;BME280;28729;49.838;8.650;2022-11-30T19:35:34;100439.56;;;8.33;100.00
43119;BME280;28729;49.838;8.650;2022-11-30T19:39:36;100443.38;;;8.32;100.00
43119;BME280;28729;49.838;8.650;2022-11-30T19:43:38;100444.22;;;8.32;100.00
43119;BME280;28729;49.838;8.650;2022-11-30T19:47:40;100446.75;;;8.34;100.00
43119;BME280;28729;49.838;8.650;2022-11-30T19:51:42;100450.13;;;8.36;100.00
43119;BME280;28729;49.838;8.650;2022-11-30T19:55:44;100450.75;;;8.38;100.00
43119;BME280;28729;49.838;8.650;2022-11-30T19:59:45;100451.41;;;8.40;100.00
43119;BME280;28729;49.838;8.650;2022-11-30T20:03:48;100452.47;;;8.39;100.00
43119;BME280;28729;49.838;8.650;2022-11-30T20:07:52;100457.31;;;8.37;100.00
43119;BME280;28729;49.838;8.650;2022-11-30T20:11:56;100458.59;;;8.34;100.00
43119;BME280;28729;49.838;8.650;2022-11-30T20:15:57;100457.50;;;8.35;100.00
43119;BME280;28729;49.838;8.650;2022-11-30T20:19:59;100464.47;;;8.38;100.00
43119;BME280;28729;49.838;8.650;2022-11-30T20:24:03;100467.06;;;8.39;100.00
43119;BME280;28729;49.838;8.650;2022-11-30T20:28:05;100458.56;;;8.41;100.00
43119;BME280;28729;49.838;8.650;2022-11-30T20:32:12;100465.78;;;8.42;100.00
43119;BME280;28729;49.838;8.650;2022-11-30T20:36:15;100461.13;;;8.42;100.00
43119;BME280;28729;49.838;8.650;2022-11-30T20:40:17;100460.88;;;8.44;100.00
43119;BME280;28729;49.838;8.650;2022-11-30T20:44:19;100461.72;;;8.44;100.00
43119;BME280;28729;49.838;8.650;2022-11-30T20:48:21;100470.19;;;8.43;100.00
43119;BME280;28729;49.838;8.650;2022-11-30T20:52:28;100469.97;;;8.44;100.00
43119;BME280;28729;49.838;8.650;2022-11-30T20:56:31;100471.66;;;8.46;100.00
43119;BME280;28729;49.838;8.650;2022-11-30T21:00:34;100473.56;;;8.45;100.00
43119;BME280;28729;49.838;8.650;2022-11-30T21:04:36;100480.34;;;8.42;100.00
43119;BME280;28729;49.838;8.650;2022-11-30T21:08:38;100483.09;;;8.42;100.00
43119;BME280;28729;49.838;8.650;2022-11-30T21:12:40;100464.47;;;8.38;100.00
43119;BME280;28729;49.838;8.650;2022-11-30T21:16:42;100471.69;;;8.32;100.00
43119;BME280;28729;49.838;8.650;2022-11-30T21:20:44;100470.63;;;8.33;100.00
43119;BME280;28729;49.838;8.650;2022-11-30T21:24:48;100469.78;;;8.33;100.00
43119;BME280;28729;49.838;8.650;2022-11-30T21:28:52;100472.53;;;8.33;100.00
43119;BME280;28729;49.838;8.650;2022-11-30T21:33:06;100474.84;;;8.36;100.00
43119;BME280;28729;49.838;8.650;2022-11-30T21:37:08;100482.22;;;8.35;100.00
43119;BME280;28729;49.838;8.650;2022-11-30T21:41:11;100480.34;;;8.36;100.00
43119;BME280;28729;49.838;8.650;2022-11-30T21:45:13;100482.22;;;8.35;100.00
43119;BME280;28729;49.838;8.650;2022-11-30T21:49:15;100477.81;;;8.34;100.00
43119;BME280;28729;49.838;8.650;2022-11-30T21:53:17;100481.38;;;8.35;100.00
43119;BME280;28729;49.838;8.650;2022-11-30T21:57:20;100478.00;;;8.33;100.00
43119;BME280;28729;49.838;8.650;2022-11-30T22:01:25;100472.13;;;8.29;100.00
43119;BME280;28729;49.838;8.650;2022-11-30T22:05:28;100474.88;;;8.29;100.00
43119;BME280;28729;49.838;8.650;2022-11-30T22:09:30;100477.00;;;8.27;100.00
43119;BME280;28729;49.838;8.650;2022-11-30T22:13:32;100476.38;;;8.25;100.00
43119;BME280;28729;49.838;8.650;2022-11-30T22:17:34;100478.72;;;8.21;100.00
43119;BME280;28729;49.838;8.650;2022-11-30T22:21:35;100485.09;;;8.15;100.00
43119;BME280;28729;49.838;8.650;2022-11-30T22:25:37;100483.66;;;8.06;100.00
43119;BME280;28729;49.838;8.650;2022-11-30T22:29:39;100479.88;;;8.01;100.00
43119;BME280;28729;49.838;8.650;2022-11-30T22:33:41;100485.78;;;7.97;100.00
43119;BME280;28729;49.838;8.650;2022-11-30T22:37:43;100490.84;;;7.94;100.00
43119;BME280;28729;49.838;8.650;2022-11-30T22:41:46;100481.16;;;7.85;100.00